sensor_id;sensor_type;location;lat;lon;timestamp;pressure;altitude;pressure_sealevel;temperature;humidity
61478;BME280;47345;52.334;10.392;2023-08-30T00:02:18;100105.21;;;14.40;77.57
61478;BME280;47345;52.334;10.392;2023-08-30T00:04:48;100104.70;;;14.37;77.76
61478;BME280;47345;52.334;10.392;2023-08-30T00:07:19;100110.30;;;14.32;77.87
61478;BME280;47345;52.334;10.392;2023-08-30T00:09:50;100111.58;;;14.27;77.85
61478;BME280;47345;52.334;10.392;2023-08-30T00:12:21;100111.27;;;14.22;78.06
61478;BME280;47345;52.334;10.392;2023-08-30T00:14:52;100114.45;;;14.18;78.21
61478;BME280;47345;52.334;10.392;2023-08-30T00:17:23;100109.06;;;14.15;78.38
61478;BME280;47345;52.334;10.392;2023-08-30T00:19:54;100107.73;;;14.12;78.40
61478;BME280;47345;52.334;10.392;2023-08-30T00:22:25;100104.48;;;14.08;78.57
61478;BME280;47345;52.334;10.392;2023-08-30T00:24:57;100098.40;;;14.04;78.57
61478;BME280;47345;52.334;10.392;2023-08-30T00:27:27;100096.39;;;13.99;78.57
61478;BME280;47345;52.334;10.392;2023-08-30T00:29:58;100092.90;;;13.94;78.94
61478;BME280;47345;52.334;10.392;2023-08-30T00:32:30;100096.56;;;13.91;79.09
61478;BME280;47345;52.334;10.392;2023-08-30T00:35:01;100096.92;;;13.86;78.93
61478;BME280;47345;52.334;10.392;2023-08-30T00:37:32;100099.46;;;13.82;78.90
61478;BME280;47345;52.334;10.392;2023-08-30T00:40:03;100101.83;;;13.75;79.12
61478;BME280;47345;52.334;10.392;2023-08-30T00:42:35;100103.15;;;13.70;79.17
61478;BME280;47345;52.334;10.392;2023-08-30T00:45:07;100101.18;;;13.65;79.44
61478;BME280;47345;52.334;10.392;2023-08-30T00:47:38;100105.72;;;13.61;79.59
61478;BME280;47345;52.334;10.392;2023-08-30T00:50:10;100107.04;;;13.56;79.64
61478;BME280;47345;52.334;10.392;2023-08-30T00:52:41;100109.52;;;13.52;79.86
61478;BME280;47345;52.334;10.392;2023-08-30T00:55:12;100105.18;;;13.47;80.10
61478;BME280;47345;52.334;10.392;2023-08-30T00:57:44;100102.41;;;13.42;80.17
61478;BME280;47345;52.334;10.392;2023-08-30T01:00:17;100103.22;;;13.38;80.27
61478;BME280;47345;52.334;10.392;2023-08-30T01:02:48;100100.57;;;13.35;80.29
61478;BME280;47345;52.334;10.392;2023-08-30T01:05:19;100099.69;;;13.32;80.66
61478;BME280;47345;52.334;10.392;2023-08-30T01:07:50;100104.08;;;13.33;80.62
61478;BME280;47345;52.334;10.392;2023-08-30T01:10:27;100103.25;;;13.32;80.67
61478;BME280;47345;52.334;10.392;2023-08-30T01:13:08;100098.27;;;13.30;80.56
61478;BME280;47345;52.334;10.392;2023-08-30T01:15:40;100099.36;;;13.27;80.78
61478;BME280;47345;52.334;10.392;2023-08-30T01:18:11;100096.36;;;13.25;80.93
61478;BME280;47345;52.334;10.392;2023-08-30T01:20:43;100092.21;;;13.24;80.84
61478;BME280;47345;52.334;10.392;2023-08-30T01:23:23;100090.27;;;13.22;81.01
61478;BME280;47345;52.334;10.392;2023-08-30T01:26:01;100091.25;;;13.20;80.89
61478;BME280;47345;52.334;10.392;2023-08-30T01:28:37;100092.33;;;13.17;81.18
61478;BME280;47345;52.334;10.392;2023-08-30T01:31:09;100097.19;;;13.15;81.04
61478;BME280;47345;52.334;10.392;2023-08-30T01:33:43;100087.19;;;13.12;81.14
61478;BME280;47345;52.334;10.392;2023-08-30T01:36:16;100082.61;;;13.11;81.28
61478;BME280;47345;52.334;10.392;2023-08-30T01:38:47;100077.65;;;13.10;81.39
61478;BME280;47345;52.334;10.392;2023-08-30T01:41:19;100078.86;;;13.08;81.55
61478;BME280;47345;52.334;10.392;2023-08-30T01:43:53;100079.89;;;13.08;81.59
61478;BME280;47345;52.334;10.392;2023-08-30T01:46:25;100084.62;;;13.06;81.48
61478;BME280;47345;52.334;10.392;2023-08-30T01:48:57;100086.05;;;13.04;81.45
61478;BME280;47345;52.334;10.392;2023-08-30T01:51:29;100086.23;;;13.00;81.41
61478;BME280;47345;52.334;10.392;2023-08-30T01:54:00;100085.79;;;12.97;81.49
61478;BME280;47345;52.334;10.392;2023-08-30T01:56:33;100085.08;;;12.94;81.64
61478;BME280;47345;52.334;10.392;2023-08-30T01:59:04;100091.45;;;12.92;81.68
61478;BME280;47345;52.334;10.392;2023-08-30T02:01:35;100090.80;;;12.90;81.81
61478;BME280;47345;52.334;10.392;2023-08-30T02:04:06;100087.88;;;12.85;81.54
61478;BME280;47345;52.334;10.392;2023-08-30T02:06:42;100089.55;;;12.79;81.64
61478;BME280;47345;52.334;10.392;2023-08-30T02:09:19;100087.38;;;12.76;82.07
61478;BME280;47345;52.334;10.392;2023-08-30T02:11:52;100084.73;;;12.73;81.95
61478;BME280;47345;52.334;10.392;2023-08-30T02:14:25;100086.13;;;12.68;82.09
61478;BME280;47345;52.334;10.392;2023-08-30T02:16:57;100089.13;;;12.68;82.19
61478;BME280;47345;52.334;10.392;2023-08-30T02:19:29;100087.98;;;12.66;82.24
61478;BME280;47345;52.334;10.392;2023-08-30T02:22:00;100087.81;;;12.63;82.30
61478;BME280;47345;52.334;10.392;2023-08-30T02:24:31;100087.98;;;12.61;82.41
61478;BME280;47345;52.334;10.392;2023-08-30T02:27:02;100085.96;;;12.57;82.59
61478;BME280;47345;52.334;10.392;2023-08-30T02:29:33;100089.64;;;12.58;82.77
61478;BME280;47345;52.334;10.392;2023-08-30T02:32:04;100092.36;;;12.56;82.73
61478;BME280;47345;52.334;10.392;2023-08-30T02:34:35;100092.73;;;12.54;82.39
61478;BME280;47345;52.334;10.392;2023-08-30T02:37:06;100090.86;;;12.49;81.61
61478;BME280;47345;52.334;10.392;2023-08-30T02:39:37;100091.52;;;12.42;81.55
61478;BME280;47345;52.334;10.392;2023-08-30T02:42:08;100088.61;;;12.37;81.72
61478;BME280;47345;52.334;10.392;2023-08-30T02:44:39;100087.83;;;12.33;81.80
61478;BME280;47345;52.334;10.392;2023-08-30T02:47:09;100088.56;;;12.30;82.02
61478;BME280;47345;52.334;10.392;2023-08-30T02:49:41;100087.98;;;12.26;82.06
61478;BME280;47345;52.334;10.392;2023-08-30T02:52:12;100088.45;;;12.23;81.97
61478;BME280;47345;52.334;10.392;2023-08-30T02:54:43;100083.67;;;12.18;81.97
61478;BME280;47345;52.334;10.392;2023-08-30T02:57:13;100083.36;;;12.14;82.20
61478;BME280;47345;52.334;10.392;2023-08-30T02:59:44;100081.20;;;12.12;82.30
61478;BME280;47345;52.334;10.392;2023-08-30T03:02:15;100080.93;;;12.10;82.42
61478;BME280;47345;52.334;10.392;2023-08-30T03:04:46;100081.56;;;12.08;82.76
61478;BME280;47345;52.334;10.392;2023-08-30T03:07:16;100086.10;;;12.06;82.90
61478;BME280;47345;52.334;10.392;2023-08-30T03:09:51;100088.90;;;12.04;83.01
61478;BME280;47345;52.334;10.392;2023-08-30T03:12:22;100084.09;;;12.02;83.10
61478;BME280;47345;52.334;10.392;2023-08-30T03:14:53;100078.28;;;12.01;82.95
61478;BME280;47345;52.334;10.392;2023-08-30T03:17:24;100074.52;;;11.96;82.50
61478;BME280;47345;52.334;10.392;2023-08-30T03:19:55;100072.96;;;11.93;82.32
61478;BME280;47345;52.334;10.392;2023-08-30T03:22:26;100079.59;;;11.89;82.37
61478;BME280;47345;52.334;10.392;2023-08-30T03:24:57;100081.46;;;11.88;82.49
61478;BME280;47345;52.334;10.392;2023-08-30T03:27:28;100081.77;;;11.87;82.24
61478;BME280;47345;52.334;10.392;2023-08-30T03:29:59;100073.35;;;11.83;82.31
61478;BME280;47345;52.334;10.392;2023-08-30T03:32:30;100074.88;;;11.85;82.48
61478;BME280;47345;52.334;10.392;2023-08-30T03:35:02;100076.19;;;11.87;82.83
61478;BME280;47345;52.334;10.392;2023-08-30T03:37:33;100079.25;;;11.89;82.96
61478;BME280;47345;52.334;10.392;2023-08-30T03:40:05;100077.63;;;11.88;82.71
61478;BME280;47345;52.334;10.392;2023-08-30T03:42:36;100075.52;;;11.87;82.63
61478;BME280;47345;52.334;10.392;2023-08-30T03:45:10;100072.59;;;11.86;82.54
61478;BME280;47345;52.334;10.392;2023-08-30T03:47:40;100074.13;;;11.82;82.36
61478;BME280;47345;52.334;10.392;2023-08-30T03:50:11;100072.08;;;11.77;82.33
61478;BME280;47345;52.334;10.392;2023-08-30T03:52:42;100068.23;;;11.72;82.21
61478;BME280;47345;52.334;10.392;2023-08-30T03:55:13;100068.90;;;11.69;82.26
61478;BME280;47345;52.334;10.392;2023-08-30T03:57:44;100064.95;;;11.67;82.47
61478;BME280;47345;52.334;10.392;2023-08-30T04:00:15;100065.23;;;11.67;82.89
61478;BME280;47345;52.334;10.392;2023-08-30T04:02:46;100057.82;;;11.66;83.00
61478;BME280;47345;52.334;10.392;2023-08-30T04:05:18;100056.39;;;11.66;83.09
61478;BME280;47345;52.334;10.392;2023-08-30T04:07:48;100053.31;;;11.66;83.10
61478;BME280;47345;52.334;10.392;2023-08-30T04:10:20;100051.64;;;11.65;82.81
61478;BME280;47345;52.334;10.392;2023-08-30T04:12:50;100049.17;;;11.63;82.71
61478;BME280;47345;52.334;10.392;2023-08-30T04:15:21;100050.99;;;11.60;82.74
61478;BME280;47345;52.334;10.392;2023-08-30T04:17:52;100047.41;;;11.60;83.31
61478;BME280;47345;52.334;10.392;2023-08-30T04:20:23;100046.07;;;11.59;82.89
61478;BME280;47345;52.334;10.392;2023-08-30T04:22:54;100044.11;;;11.54;82.16
61478;BME280;47345;52.334;10.392;2023-08-30T04:25:26;100038.67;;;11.47;81.91
61478;BME280;47345;52.334;10.392;2023-08-30T04:27:56;100040.38;;;11.42;81.93
61478;BME280;47345;52.334;10.392;2023-08-30T04:30:27;100041.53;;;11.38;82.25
61478;BME280;47345;52.334;10.392;2023-08-30T04:32:59;100042.04;;;11.39;82.96
61478;BME280;47345;52.334;10.392;2023-08-30T04:35:32;100043.32;;;11.40;82.99
61478;BME280;47345;52.334;10.392;2023-08-30T04:38:03;100040.92;;;11.44;83.22
61478;BME280;47345;52.334;10.392;2023-08-30T04:40:34;100036.06;;;11.50;83.66
61478;BME280;47345;52.334;10.392;2023-08-30T04:43:06;100028.95;;;11.57;83.85
61478;BME280;47345;52.334;10.392;2023-08-30T04:45:37;100029.48;;;11.64;84.04
61478;BME280;47345;52.334;10.392;2023-08-30T04:48:08;100027.09;;;11.73;84.14
61478;BME280;47345;52.334;10.392;2023-08-30T04:50:38;100027.42;;;11.81;84.19
61478;BME280;47345;52.334;10.392;2023-08-30T04:53:09;100026.84;;;11.92;83.84
61478;BME280;47345;52.334;10.392;2023-08-30T04:55:40;100025.57;;;12.04;83.56
61478;BME280;47345;52.334;10.392;2023-08-30T04:58:11;100028.64;;;12.12;83.21
61478;BME280;47345;52.334;10.392;2023-08-30T05:00:42;100030.77;;;12.23;83.21
61478;BME280;47345;52.334;10.392;2023-08-30T05:03:12;100034.79;;;12.31;82.93
61478;BME280;47345;52.334;10.392;2023-08-30T05:05:47;100031.53;;;12.39;83.08
61478;BME280;47345;52.334;10.392;2023-08-30T05:08:18;100035.31;;;12.48;83.09
61478;BME280;47345;52.334;10.392;2023-08-30T05:10:49;100036.89;;;12.59;83.14
61478;BME280;47345;52.334;10.392;2023-08-30T05:13:20;100037.46;;;12.72;83.06
61478;BME280;47345;52.334;10.392;2023-08-30T05:15:51;100038.48;;;12.85;82.88
61478;BME280;47345;52.334;10.392;2023-08-30T05:18:22;100035.38;;;12.98;82.83
61478;BME280;47345;52.334;10.392;2023-08-30T05:20:53;100032.23;;;13.13;82.64
61478;BME280;47345;52.334;10.392;2023-08-30T05:23:23;100027.02;;;13.27;82.43
61478;BME280;47345;52.334;10.392;2023-08-30T05:25:54;100023.54;;;13.41;82.26
61478;BME280;47345;52.334;10.392;2023-08-30T05:28:25;100023.34;;;13.56;82.01
61478;BME280;47345;52.334;10.392;2023-08-30T05:30:57;100025.84;;;13.69;81.94
61478;BME280;47345;52.334;10.392;2023-08-30T05:33:27;100029.95;;;13.80;81.62
61478;BME280;47345;52.334;10.392;2023-08-30T05:35:59;100033.18;;;13.92;81.40
61478;BME280;47345;52.334;10.392;2023-08-30T05:38:29;100036.64;;;14.04;81.15
61478;BME280;47345;52.334;10.392;2023-08-30T05:41:00;100033.86;;;14.14;80.91
61478;BME280;47345;52.334;10.392;2023-08-30T05:43:30;100035.84;;;14.27;80.65
61478;BME280;47345;52.334;10.392;2023-08-30T05:46:01;100032.08;;;14.36;80.25
61478;BME280;47345;52.334;10.392;2023-08-30T05:48:34;100034.98;;;14.46;79.90
61478;BME280;47345;52.334;10.392;2023-08-30T05:51:04;100035.66;;;14.57;79.82
61478;BME280;47345;52.334;10.392;2023-08-30T05:53:35;100033.59;;;14.67;79.20
61478;BME280;47345;52.334;10.392;2023-08-30T05:56:07;100030.12;;;14.75;78.91
61478;BME280;47345;52.334;10.392;2023-08-30T05:58:38;100041.65;;;14.84;78.69
61478;BME280;47345;52.334;10.392;2023-08-30T06:01:09;100034.36;;;14.91;78.34
61478;BME280;47345;52.334;10.392;2023-08-30T06:03:40;100033.23;;;14.97;78.21
61478;BME280;47345;52.334;10.392;2023-08-30T06:06:11;100027.00;;;15.09;78.50
61478;BME280;47345;52.334;10.392;2023-08-30T06:08:42;100029.61;;;15.27;78.63
61478;BME280;47345;52.334;10.392;2023-08-30T06:11:13;100025.08;;;15.46;78.41
61478;BME280;47345;52.334;10.392;2023-08-30T06:13:44;100016.98;;;15.60;78.02
61478;BME280;47345;52.334;10.392;2023-08-30T06:16:16;100020.88;;;15.74;77.88
61478;BME280;47345;52.334;10.392;2023-08-30T06:18:46;100012.90;;;15.89;77.63
61478;BME280;47345;52.334;10.392;2023-08-30T06:21:17;100005.56;;;16.01;77.40
61478;BME280;47345;52.334;10.392;2023-08-30T06:23:48;100002.50;;;16.10;77.06
61478;BME280;47345;52.334;10.392;2023-08-30T06:26:19;100002.31;;;16.15;76.60
61478;BME280;47345;52.334;10.392;2023-08-30T06:28:51;100005.02;;;16.21;76.70
61478;BME280;47345;52.334;10.392;2023-08-30T06:31:25;100004.30;;;16.27;76.50
61478;BME280;47345;52.334;10.392;2023-08-30T06:33:58;100006.84;;;16.35;76.50
61478;BME280;47345;52.334;10.392;2023-08-30T06:36:29;100001.17;;;16.43;76.23
61478;BME280;47345;52.334;10.392;2023-08-30T06:39:00;99999.33;;;16.50;75.83
61478;BME280;47345;52.334;10.392;2023-08-30T06:41:32;100001.15;;;16.59;75.82
61478;BME280;47345;52.334;10.392;2023-08-30T06:44:03;99998.27;;;16.64;75.37
61478;BME280;47345;52.334;10.392;2023-08-30T06:46:34;99995.37;;;16.70;75.42
61478;BME280;47345;52.334;10.392;2023-08-30T06:49:07;99994.95;;;16.81;75.41
61478;BME280;47345;52.334;10.392;2023-08-30T06:51:39;99989.41;;;16.97;75.46
61478;BME280;47345;52.334;10.392;2023-08-30T06:54:10;99997.65;;;17.09;74.86
61478;BME280;47345;52.334;10.392;2023-08-30T06:56:45;99997.70;;;17.17;74.58
61478;BME280;47345;52.334;10.392;2023-08-30T06:59:27;99995.06;;;17.23;74.17
61478;BME280;47345;52.334;10.392;2023-08-30T07:01:58;99999.40;;;17.28;73.85
61478;BME280;47345;52.334;10.392;2023-08-30T07:04:29;99996.98;;;17.31;73.76
61478;BME280;47345;52.334;10.392;2023-08-30T07:07:00;99995.48;;;17.35;73.66
61478;BME280;47345;52.334;10.392;2023-08-30T07:09:32;99997.95;;;17.41;73.63
61478;BME280;47345;52.334;10.392;2023-08-30T07:12:03;99999.36;;;17.50;73.43
61478;BME280;47345;52.334;10.392;2023-08-30T07:14:34;99996.84;;;17.58;73.05
61478;BME280;47345;52.334;10.392;2023-08-30T07:17:05;99998.88;;;17.63;72.97
61478;BME280;47345;52.334;10.392;2023-08-30T07:19:36;99995.42;;;17.68;72.86
61478;BME280;47345;52.334;10.392;2023-08-30T07:22:07;99994.55;;;17.74;72.65
61478;BME280;47345;52.334;10.392;2023-08-30T07:24:39;99996.05;;;17.84;72.32
61478;BME280;47345;52.334;10.392;2023-08-30T07:27:09;99994.46;;;17.91;71.92
61478;BME280;47345;52.334;10.392;2023-08-30T07:29:40;99997.46;;;17.95;71.51
61478;BME280;47345;52.334;10.392;2023-08-30T07:32:13;100002.30;;;17.98;70.97
61478;BME280;47345;52.334;10.392;2023-08-30T07:34:44;100000.04;;;18.01;70.75
61478;BME280;47345;52.334;10.392;2023-08-30T07:37:22;99997.44;;;18.05;70.57
61478;BME280;47345;52.334;10.392;2023-08-30T07:39:53;99992.68;;;18.10;70.53
61478;BME280;47345;52.334;10.392;2023-08-30T07:42:25;99993.40;;;18.14;69.85
61478;BME280;47345;52.334;10.392;2023-08-30T07:44:56;99997.61;;;18.17;69.94
61478;BME280;47345;52.334;10.392;2023-08-30T07:47:27;100001.04;;;18.23;70.15
61478;BME280;47345;52.334;10.392;2023-08-30T07:49:57;100000.10;;;18.31;70.18
61478;BME280;47345;52.334;10.392;2023-08-30T07:52:28;100002.47;;;18.48;70.15
61478;BME280;47345;52.334;10.392;2023-08-30T07:55:14;99999.88;;;18.68;69.20
61478;BME280;47345;52.334;10.392;2023-08-30T07:57:45;100002.34;;;18.88;68.57
61478;BME280;47345;52.334;10.392;2023-08-30T08:00:16;100001.92;;;19.05;67.94
61478;BME280;47345;52.334;10.392;2023-08-30T08:02:47;99997.09;;;19.26;67.85
61478;BME280;47345;52.334;10.392;2023-08-30T08:05:18;99998.39;;;19.52;67.14
61478;BME280;47345;52.334;10.392;2023-08-30T08:07:52;99990.70;;;19.76;66.41
61478;BME280;47345;52.334;10.392;2023-08-30T08:10:23;99992.02;;;20.00;65.68
61478;BME280;47345;52.334;10.392;2023-08-30T08:12:53;99984.71;;;20.18;65.13
61478;BME280;47345;52.334;10.392;2023-08-30T08:15:27;99989.23;;;20.35;64.38
61478;BME280;47345;52.334;10.392;2023-08-30T08:18:00;99990.98;;;20.55;64.07
61478;BME280;47345;52.334;10.392;2023-08-30T08:20:31;99988.98;;;20.72;63.29
61478;BME280;47345;52.334;10.392;2023-08-30T08:23:03;99989.44;;;20.84;62.66
61478;BME280;47345;52.334;10.392;2023-08-30T08:25:33;99984.06;;;20.98;62.26
61478;BME280;47345;52.334;10.392;2023-08-30T08:28:05;99984.66;;;21.12;61.85
61478;BME280;47345;52.334;10.392;2023-08-30T08:30:37;99985.02;;;21.27;61.42
61478;BME280;47345;52.334;10.392;2023-08-30T08:33:08;99985.57;;;21.42;61.63
61478;BME280;47345;52.334;10.392;2023-08-30T08:35:39;99984.67;;;21.59;60.68
61478;BME280;47345;52.334;10.392;2023-08-30T08:38:10;99981.45;;;21.69;59.46
61478;BME280;47345;52.334;10.392;2023-08-30T08:40:41;99981.19;;;21.77;59.15
61478;BME280;47345;52.334;10.392;2023-08-30T08:43:12;99978.45;;;21.89;59.25
61478;BME280;47345;52.334;10.392;2023-08-30T08:45:44;99973.78;;;22.01;59.43
61478;BME280;47345;52.334;10.392;2023-08-30T08:48:16;99972.64;;;22.12;59.22
61478;BME280;47345;52.334;10.392;2023-08-30T08:50:47;99970.04;;;22.18;57.39
61478;BME280;47345;52.334;10.392;2023-08-30T08:53:19;99968.84;;;22.16;56.73
61478;BME280;47345;52.334;10.392;2023-08-30T08:55:51;99964.50;;;22.13;56.42
61478;BME280;47345;52.334;10.392;2023-08-30T08:58:23;99966.50;;;22.09;56.61
61478;BME280;47345;52.334;10.392;2023-08-30T09:00:54;99960.48;;;22.12;56.23
61478;BME280;47345;52.334;10.392;2023-08-30T09:03:26;99962.35;;;22.18;56.54
61478;BME280;47345;52.334;10.392;2023-08-30T09:05:57;99963.23;;;22.28;56.60
61478;BME280;47345;52.334;10.392;2023-08-30T09:08:29;99964.40;;;22.34;56.55
61478;BME280;47345;52.334;10.392;2023-08-30T09:11:02;99964.27;;;22.43;56.21
61478;BME280;47345;52.334;10.392;2023-08-30T09:13:33;99968.13;;;22.52;55.82
61478;BME280;47345;52.334;10.392;2023-08-30T09:16:10;99963.38;;;22.62;55.05
61478;BME280;47345;52.334;10.392;2023-08-30T09:18:42;99959.29;;;22.72;54.57
61478;BME280;47345;52.334;10.392;2023-08-30T09:21:24;99961.09;;;22.85;53.93
61478;BME280;47345;52.334;10.392;2023-08-30T09:24:03;99961.02;;;22.92;52.67
61478;BME280;47345;52.334;10.392;2023-08-30T09:26:35;99961.46;;;23.02;52.31
61478;BME280;47345;52.334;10.392;2023-08-30T09:29:08;99966.14;;;23.06;51.87
61478;BME280;47345;52.334;10.392;2023-08-30T09:31:39;99966.44;;;23.05;52.29
61478;BME280;47345;52.334;10.392;2023-08-30T09:34:11;99963.27;;;23.05;52.41
61478;BME280;47345;52.334;10.392;2023-08-30T09:36:42;99968.17;;;22.99;51.78
61478;BME280;47345;52.334;10.392;2023-08-30T09:39:16;99965.13;;;22.95;51.87
61478;BME280;47345;52.334;10.392;2023-08-30T09:41:48;99966.13;;;22.92;51.61
61478;BME280;47345;52.334;10.392;2023-08-30T09:44:20;99964.77;;;22.91;51.56
61478;BME280;47345;52.334;10.392;2023-08-30T09:46:53;99970.70;;;22.95;51.89
61478;BME280;47345;52.334;10.392;2023-08-30T09:49:25;99965.52;;;23.06;51.48
61478;BME280;47345;52.334;10.392;2023-08-30T09:51:56;99964.09;;;23.16;51.20
61478;BME280;47345;52.334;10.392;2023-08-30T09:54:31;99960.81;;;23.20;51.71
61478;BME280;47345;52.334;10.392;2023-08-30T09:57:08;99957.95;;;23.23;50.75
61478;BME280;47345;52.334;10.392;2023-08-30T09:59:40;99954.52;;;23.27;51.18
61478;BME280;47345;52.334;10.392;2023-08-30T10:02:11;99952.58;;;23.31;50.37
61478;BME280;47345;52.334;10.392;2023-08-30T10:04:42;99948.64;;;23.38;51.17
61478;BME280;47345;52.334;10.392;2023-08-30T10:07:15;99947.04;;;23.45;50.87
61478;BME280;47345;52.334;10.392;2023-08-30T10:09:46;99950.22;;;23.52;50.54
61478;BME280;47345;52.334;10.392;2023-08-30T10:12:40;99951.23;;;23.59;49.75
61478;BME280;47345;52.334;10.392;2023-08-30T10:15:23;99949.55;;;23.65;50.00
61478;BME280;47345;52.334;10.392;2023-08-30T10:17:55;99942.31;;;23.80;50.48
61478;BME280;47345;52.334;10.392;2023-08-30T10:20:29;99937.64;;;23.88;49.51
61478;BME280;47345;52.334;10.392;2023-08-30T10:23:02;99932.59;;;23.89;49.17
61478;BME280;47345;52.334;10.392;2023-08-30T10:25:34;99933.09;;;23.85;48.57
61478;BME280;47345;52.334;10.392;2023-08-30T10:28:05;99931.42;;;23.80;48.30
61478;BME280;47345;52.334;10.392;2023-08-30T10:30:37;99935.36;;;23.86;48.63
61478;BME280;47345;52.334;10.392;2023-08-30T10:33:14;99934.53;;;23.94;49.68
61478;BME280;47345;52.334;10.392;2023-08-30T10:35:48;99935.28;;;24.08;50.00
61478;BME280;47345;52.334;10.392;2023-08-30T10:38:28;99936.52;;;24.21;49.35
61478;BME280;47345;52.334;10.392;2023-08-30T10:41:07;99935.88;;;24.37;49.31
61478;BME280;47345;52.334;10.392;2023-08-30T10:43:38;99937.06;;;24.43;48.81
61478;BME280;47345;52.334;10.392;2023-08-30T10:46:10;99933.31;;;24.45;49.83
61478;BME280;47345;52.334;10.392;2023-08-30T10:48:41;99937.10;;;24.56;49.45
61478;BME280;47345;52.334;10.392;2023-08-30T10:51:21;99934.23;;;24.63;48.75
61478;BME280;47345;52.334;10.392;2023-08-30T10:53:59;99933.37;;;24.66;49.62
61478;BME280;47345;52.334;10.392;2023-08-30T10:56:30;99927.15;;;24.60;48.57
61478;BME280;47345;52.334;10.392;2023-08-30T10:59:04;99926.07;;;24.61;48.70
61478;BME280;47345;52.334;10.392;2023-08-30T11:01:46;99926.37;;;24.62;47.57
61478;BME280;47345;52.334;10.392;2023-08-30T11:04:18;99920.30;;;24.59;47.08
61478;BME280;47345;52.334;10.392;2023-08-30T11:06:52;99915.89;;;24.59;47.66
61478;BME280;47345;52.334;10.392;2023-08-30T11:09:25;99913.38;;;24.69;47.81
61478;BME280;47345;52.334;10.392;2023-08-30T11:11:56;99912.98;;;24.80;47.37
61478;BME280;47345;52.334;10.392;2023-08-30T11:14:26;99910.55;;;24.87;46.29
61478;BME280;47345;52.334;10.392;2023-08-30T11:16:58;99907.52;;;24.93;47.27
61478;BME280;47345;52.334;10.392;2023-08-30T11:19:30;99906.55;;;24.99;47.12
61478;BME280;47345;52.334;10.392;2023-08-30T11:22:01;99903.70;;;25.05;46.80
61478;BME280;47345;52.334;10.392;2023-08-30T11:24:34;99901.55;;;25.13;46.60
61478;BME280;47345;52.334;10.392;2023-08-30T11:27:06;99896.12;;;25.20;45.68
61478;BME280;47345;52.334;10.392;2023-08-30T11:29:37;99893.13;;;25.25;45.13
61478;BME280;47345;52.334;10.392;2023-08-30T11:32:10;99891.19;;;25.26;45.21
61478;BME280;47345;52.334;10.392;2023-08-30T11:34:40;99888.33;;;25.32;44.99
61478;BME280;47345;52.334;10.392;2023-08-30T11:37:11;99886.98;;;25.32;44.26
61478;BME280;47345;52.334;10.392;2023-08-30T11:39:42;99888.02;;;25.20;43.84
61478;BME280;47345;52.334;10.392;2023-08-30T11:42:13;99880.88;;;25.01;44.68
61478;BME280;47345;52.334;10.392;2023-08-30T11:44:47;99883.66;;;24.94;45.11
61478;BME280;47345;52.334;10.392;2023-08-30T11:47:20;99881.54;;;24.98;45.31
61478;BME280;47345;52.334;10.392;2023-08-30T11:49:53;99882.67;;;24.89;44.78
61478;BME280;47345;52.334;10.392;2023-08-30T11:52:25;99879.85;;;24.81;44.72
61478;BME280;47345;52.334;10.392;2023-08-30T11:54:56;99878.49;;;24.75;44.85
61478;BME280;47345;52.334;10.392;2023-08-30T11:57:28;99878.42;;;24.71;45.47
61478;BME280;47345;52.334;10.392;2023-08-30T12:00:08;99879.73;;;24.68;45.33
61478;BME280;47345;52.334;10.392;2023-08-30T12:02:39;99880.58;;;24.73;45.51
61478;BME280;47345;52.334;10.392;2023-08-30T12:05:13;99876.90;;;24.86;45.65
61478;BME280;47345;52.334;10.392;2023-08-30T12:07:47;99873.34;;;25.00;45.31
61478;BME280;47345;52.334;10.392;2023-08-30T12:10:19;99870.09;;;25.08;44.99
61478;BME280;47345;52.334;10.392;2023-08-30T12:12:50;99864.43;;;25.03;45.03
61478;BME280;47345;52.334;10.392;2023-08-30T12:15:24;99861.88;;;24.96;45.33
61478;BME280;47345;52.334;10.392;2023-08-30T12:17:57;99858.21;;;24.84;45.82
61478;BME280;47345;52.334;10.392;2023-08-30T12:20:37;99859.79;;;24.72;46.04
61478;BME280;47345;52.334;10.392;2023-08-30T12:23:18;99854.38;;;24.58;46.44
61478;BME280;47345;52.334;10.392;2023-08-30T12:25:59;99850.26;;;24.37;46.47
61478;BME280;47345;52.334;10.392;2023-08-30T12:28:31;99847.83;;;24.09;46.83
61478;BME280;47345;52.334;10.392;2023-08-30T12:31:03;99845.23;;;23.78;46.93
61478;BME280;47345;52.334;10.392;2023-08-30T12:33:34;99844.73;;;23.54;47.91
61478;BME280;47345;52.334;10.392;2023-08-30T12:36:06;99838.63;;;23.29;48.31
61478;BME280;47345;52.334;10.392;2023-08-30T12:38:36;99837.64;;;23.05;49.21
61478;BME280;47345;52.334;10.392;2023-08-30T12:41:08;99837.84;;;22.86;50.50
61478;BME280;47345;52.334;10.392;2023-08-30T12:43:39;99829.61;;;22.64;50.47
61478;BME280;47345;52.334;10.392;2023-08-30T12:46:10;99833.16;;;22.45;50.80
61478;BME280;47345;52.334;10.392;2023-08-30T12:48:42;99832.78;;;22.29;51.28
61478;BME280;47345;52.334;10.392;2023-08-30T12:51:13;99830.61;;;22.12;52.12
61478;BME280;47345;52.334;10.392;2023-08-30T12:53:44;99835.71;;;21.94;52.64
61478;BME280;47345;52.334;10.392;2023-08-30T12:56:15;99827.10;;;21.84;53.07
61478;BME280;47345;52.334;10.392;2023-08-30T12:58:46;99831.84;;;21.74;53.72
61478;BME280;47345;52.334;10.392;2023-08-30T13:01:16;99830.92;;;21.66;54.25
61478;BME280;47345;52.334;10.392;2023-08-30T13:03:48;99827.61;;;21.59;54.39
61478;BME280;47345;52.334;10.392;2023-08-30T13:06:19;99826.45;;;21.52;55.20
61478;BME280;47345;52.334;10.392;2023-08-30T13:08:49;99822.52;;;21.47;56.12
61478;BME280;47345;52.334;10.392;2023-08-30T13:11:20;99811.82;;;21.41;57.04